sensor_id;sensor_type;location;lat;lon;timestamp;P1;durP1;ratioP1;P2;durP2;ratioP2
17091;SDS011;8661;45.700;4.880;2023-08-08T00:00:08;1.97;;;1.03;;
17091;SDS011;8661;45.700;4.880;2023-08-08T00:02:36;1.20;;;0.80;;
17091;SDS011;8661;45.700;4.880;2023-08-08T00:05:03;3.17;;;1.30;;
17091;SDS011;8661;45.700;4.880;2023-08-08T00:07:30;3.17;;;0.93;;
17091;SDS011;8661;45.700;4.880;2023-08-08T00:09:57;2.47;;;1.00;;
17091;SDS011;8661;45.700;4.880;2023-08-08T00:12:24;2.07;;;1.00;;
17091;SDS011;8661;45.700;4.880;2023-08-08T00:14:51;1.60;;;1.07;;
17091;SDS011;8661;45.700;4.880;2023-08-08T00:17:19;1.00;;;0.90;;
17091;SDS011;8661;45.700;4.880;2023-08-08T00:19:46;2.23;;;1.00;;
17091;SDS011;8661;45.700;4.880;2023-08-08T00:22:13;3.20;;;1.00;;
17091;SDS011;8661;45.700;4.880;2023-08-08T00:24:40;4.03;;;0.93;;
17091;SDS011;8661;45.700;4.880;2023-08-08T00:27:07;1.83;;;1.03;;
17091;SDS011;8661;45.700;4.880;2023-08-08T00:29:33;1.20;;;1.00;;
17091;SDS011;8661;45.700;4.880;2023-08-08T00:32:00;1.40;;;1.10;;
17091;SDS011;8661;45.700;4.880;2023-08-08T00:34:29;2.30;;;1.17;;
17091;SDS011;8661;45.700;4.880;2023-08-08T00:36:55;1.93;;;1.10;;
17091;SDS011;8661;45.700;4.880;2023-08-08T00:39:22;1.90;;;1.10;;
17091;SDS011;8661;45.700;4.880;2023-08-08T00:41:49;17.57;;;11.77;;
17091;SDS011;8661;45.700;4.880;2023-08-08T00:44:16;50.23;;;24.80;;
17091;SDS011;8661;45.700;4.880;2023-08-08T00:46:43;28.97;;;15.73;;
17091;SDS011;8661;45.700;4.880;2023-08-08T00:49:10;26.07;;;13.50;;
17091;SDS011;8661;45.700;4.880;2023-08-08T00:51:38;25.93;;;13.77;;
17091;SDS011;8661;45.700;4.880;2023-08-08T00:54:05;19.07;;;9.60;;
17091;SDS011;8661;45.700;4.880;2023-08-08T00:56:33;34.97;;;19.53;;
17091;SDS011;8661;45.700;4.880;2023-08-08T00:59:01;81.30;;;42.80;;
17091;SDS011;8661;45.700;4.880;2023-08-08T01:01:29;26.20;;;14.93;;
17091;SDS011;8661;45.700;4.880;2023-08-08T01:03:55;4.20;;;2.80;;
17091;SDS011;8661;45.700;4.880;2023-08-08T01:06:23;6.00;;;3.13;;
17091;SDS011;8661;45.700;4.880;2023-08-08T01:08:57;6.87;;;3.20;;
17091;SDS011;8661;45.700;4.880;2023-08-08T01:11:27;4.97;;;1.97;;
17091;SDS011;8661;45.700;4.880;2023-08-08T01:13:56;1.80;;;1.20;;
17091;SDS011;8661;45.700;4.880;2023-08-08T01:16:24;39.37;;;21.63;;
17091;SDS011;8661;45.700;4.880;2023-08-08T01:18:52;2.53;;;1.67;;
17091;SDS011;8661;45.700;4.880;2023-08-08T01:21:20;1.90;;;1.20;;
17091;SDS011;8661;45.700;4.880;2023-08-08T01:23:50;1.80;;;1.20;;
17091;SDS011;8661;45.700;4.880;2023-08-08T01:26:22;3.27;;;1.40;;
17091;SDS011;8661;45.700;4.880;2023-08-08T01:28:52;1.23;;;1.10;;
17091;SDS011;8661;45.700;4.880;2023-08-08T01:31:19;3.17;;;0.93;;
17091;SDS011;8661;45.700;4.880;2023-08-08T01:33:46;2.83;;;1.80;;
17091;SDS011;8661;45.700;4.880;2023-08-08T01:36:13;2.13;;;1.23;;
17091;SDS011;8661;45.700;4.880;2023-08-08T01:38:46;2.70;;;1.10;;
17091;SDS011;8661;45.700;4.880;2023-08-08T01:41:15;2.33;;;0.97;;
17091;SDS011;8661;45.700;4.880;2023-08-08T01:43:45;3.40;;;1.07;;
17091;SDS011;8661;45.700;4.880;2023-08-08T01:46:12;4.73;;;1.50;;
17091;SDS011;8661;45.700;4.880;2023-08-08T01:48:39;2.23;;;1.33;;
17091;SDS011;8661;45.700;4.880;2023-08-08T01:51:06;1.50;;;1.00;;
17091;SDS011;8661;45.700;4.880;2023-08-08T01:53:32;4.07;;;1.20;;
17091;SDS011;8661;45.700;4.880;2023-08-08T01:55:59;1.50;;;1.27;;
17091;SDS011;8661;45.700;4.880;2023-08-08T01:58:28;3.37;;;1.37;;
17091;SDS011;8661;45.700;4.880;2023-08-08T02:00:56;1.80;;;1.37;;
17091;SDS011;8661;45.700;4.880;2023-08-08T02:03:23;2.57;;;1.47;;
17091;SDS011;8661;45.700;4.880;2023-08-08T02:05:50;4.97;;;1.47;;
17091;SDS011;8661;45.700;4.880;2023-08-08T02:08:16;3.87;;;1.20;;
17091;SDS011;8661;45.700;4.880;2023-08-08T02:10:43;3.17;;;1.20;;
17091;SDS011;8661;45.700;4.880;2023-08-08T02:13:10;3.07;;;1.07;;
17091;SDS011;8661;45.700;4.880;2023-08-08T02:15:37;3.67;;;1.40;;
17091;SDS011;8661;45.700;4.880;2023-08-08T02:18:05;2.87;;;1.00;;
17091;SDS011;8661;45.700;4.880;2023-08-08T02:20:34;1.77;;;1.30;;
17091;SDS011;8661;45.700;4.880;2023-08-08T02:23:00;3.17;;;1.20;;
17091;SDS011;8661;45.700;4.880;2023-08-08T02:25:27;2.03;;;1.30;;
17091;SDS011;8661;45.700;4.880;2023-08-08T02:27:55;3.43;;;1.43;;
17091;SDS011;8661;45.700;4.880;2023-08-08T02:30:22;2.13;;;1.20;;
17091;SDS011;8661;45.700;4.880;2023-08-08T02:32:49;2.37;;;1.60;;
17091;SDS011;8661;45.700;4.880;2023-08-08T02:35:18;2.87;;;1.17;;
17091;SDS011;8661;45.700;4.880;2023-08-08T02:37:44;2.23;;;1.27;;
17091;SDS011;8661;45.700;4.880;2023-08-08T02:40:11;1.47;;;1.20;;
17091;SDS011;8661;45.700;4.880;2023-08-08T02:42:38;1.50;;;1.27;;
17091;SDS011;8661;45.700;4.880;2023-08-08T02:45:06;1.43;;;1.27;;
17091;SDS011;8661;45.700;4.880;2023-08-08T02:47:33;3.20;;;1.20;;
17091;SDS011;8661;45.700;4.880;2023-08-08T02:50:00;1.87;;;1.40;;
17091;SDS011;8661;45.700;4.880;2023-08-08T02:52:28;2.90;;;1.20;;
17091;SDS011;8661;45.700;4.880;2023-08-08T02:54:55;1.93;;;1.17;;
17091;SDS011;8661;45.700;4.880;2023-08-08T02:57:22;1.97;;;1.10;;
17091;SDS011;8661;45.700;4.880;2023-08-08T02:59:49;3.00;;;1.70;;
17091;SDS011;8661;45.700;4.880;2023-08-08T03:02:15;5.43;;;1.43;;
17091;SDS011;8661;45.700;4.880;2023-08-08T03:04:42;1.83;;;1.17;;
17091;SDS011;8661;45.700;4.880;2023-08-08T03:07:09;2.43;;;1.30;;
17091;SDS011;8661;45.700;4.880;2023-08-08T03:09:37;2.03;;;1.10;;
17091;SDS011;8661;45.700;4.880;2023-08-08T03:12:05;2.50;;;1.00;;
17091;SDS011;8661;45.700;4.880;2023-08-08T03:14:32;2.60;;;1.30;;
17091;SDS011;8661;45.700;4.880;2023-08-08T03:16:59;2.33;;;1.40;;
17091;SDS011;8661;45.700;4.880;2023-08-08T03:19:29;1.53;;;0.90;;
17091;SDS011;8661;45.700;4.880;2023-08-08T03:21:55;2.00;;;1.20;;
17091;SDS011;8661;45.700;4.880;2023-08-08T03:24:22;1.57;;;1.23;;
17091;SDS011;8661;45.700;4.880;2023-08-08T03:26:50;1.60;;;1.43;;
17091;SDS011;8661;45.700;4.880;2023-08-08T03:29:17;4.10;;;1.40;;
17091;SDS011;8661;45.700;4.880;2023-08-08T03:31:46;2.70;;;1.10;;
17091;SDS011;8661;45.700;4.880;2023-08-08T03:34:12;2.80;;;1.10;;
17091;SDS011;8661;45.700;4.880;2023-08-08T03:36:40;1.20;;;1.10;;
17091;SDS011;8661;45.700;4.880;2023-08-08T03:39:07;3.03;;;1.40;;
17091;SDS011;8661;45.700;4.880;2023-08-08T03:41:34;2.83;;;1.40;;
17091;SDS011;8661;45.700;4.880;2023-08-08T03:44:03;2.40;;;1.30;;
17091;SDS011;8661;45.700;4.880;2023-08-08T03:46:30;1.47;;;1.17;;
17091;SDS011;8661;45.700;4.880;2023-08-08T03:48:57;1.50;;;1.30;;
17091;SDS011;8661;45.700;4.880;2023-08-08T03:51:23;2.90;;;1.20;;
17091;SDS011;8661;45.700;4.880;2023-08-08T03:53:50;3.10;;;1.00;;
17091;SDS011;8661;45.700;4.880;2023-08-08T03:56:17;2.03;;;1.30;;
17091;SDS011;8661;45.700;4.880;2023-08-08T03:58:44;2.30;;;1.03;;
17091;SDS011;8661;45.700;4.880;2023-08-08T04:01:12;2.63;;;1.00;;
17091;SDS011;8661;45.700;4.880;2023-08-08T04:03:39;1.43;;;1.30;;
17091;SDS011;8661;45.700;4.880;2023-08-08T04:06:06;2.87;;;1.17;;
17091;SDS011;8661;45.700;4.880;2023-08-08T04:08:33;2.00;;;1.43;;
17091;SDS011;8661;45.700;4.880;2023-08-08T04:11:00;1.63;;;1.30;;
17091;SDS011;8661;45.700;4.880;2023-08-08T04:13:26;2.57;;;1.30;;
17091;SDS011;8661;45.700;4.880;2023-08-08T04:15:53;1.90;;;1.43;;
17091;SDS011;8661;45.700;4.880;2023-08-08T04:18:21;3.57;;;1.37;;
17091;SDS011;8661;45.700;4.880;2023-08-08T04:20:48;3.50;;;1.30;;
17091;SDS011;8661;45.700;4.880;2023-08-08T04:23:15;3.53;;;1.47;;
17091;SDS011;8661;45.700;4.880;2023-08-08T04:25:42;4.43;;;1.33;;
17091;SDS011;8661;45.700;4.880;2023-08-08T04:28:09;3.77;;;1.43;;
17091;SDS011;8661;45.700;4.880;2023-08-08T04:30:36;3.03;;;1.57;;
17091;SDS011;8661;45.700;4.880;2023-08-08T04:33:03;2.30;;;1.40;;
17091;SDS011;8661;45.700;4.880;2023-08-08T04:35:31;1.77;;;1.40;;
17091;SDS011;8661;45.700;4.880;2023-08-08T04:37:58;3.50;;;1.23;;
17091;SDS011;8661;45.700;4.880;2023-08-08T04:40:25;2.93;;;1.50;;
17091;SDS011;8661;45.700;4.880;2023-08-08T04:42:52;3.93;;;1.37;;
17091;SDS011;8661;45.700;4.880;2023-08-08T04:45:19;1.50;;;1.30;;
17091;SDS011;8661;45.700;4.880;2023-08-08T04:47:46;2.37;;;1.20;;
17091;SDS011;8661;45.700;4.880;2023-08-08T04:50:13;3.17;;;1.37;;
17091;SDS011;8661;45.700;4.880;2023-08-08T04:52:41;3.60;;;1.60;;
17091;SDS011;8661;45.700;4.880;2023-08-08T04:55:08;5.93;;;1.50;;
17091;SDS011;8661;45.700;4.880;2023-08-08T04:57:35;4.97;;;1.50;;
17091;SDS011;8661;45.700;4.880;2023-08-08T05:00:02;5.50;;;1.40;;
17091;SDS011;8661;45.700;4.880;2023-08-08T05:02:33;4.53;;;1.67;;
17091;SDS011;8661;45.700;4.880;2023-08-08T05:05:00;1.90;;;1.40;;
17091;SDS011;8661;45.700;4.880;2023-08-08T05:07:27;1.73;;;1.47;;
17091;SDS011;8661;45.700;4.880;2023-08-08T05:09:55;2.97;;;1.53;;
17091;SDS011;8661;45.700;4.880;2023-08-08T05:12:22;2.30;;;1.27;;
17091;SDS011;8661;45.700;4.880;2023-08-08T05:14:49;2.13;;;1.50;;
17091;SDS011;8661;45.700;4.880;2023-08-08T05:17:16;3.93;;;1.47;;
17091;SDS011;8661;45.700;4.880;2023-08-08T05:19:43;2.97;;;1.37;;
17091;SDS011;8661;45.700;4.880;2023-08-08T05:22:09;4.13;;;1.30;;
17091;SDS011;8661;45.700;4.880;2023-08-08T05:24:36;3.43;;;1.73;;
17091;SDS011;8661;45.700;4.880;2023-08-08T05:27:05;4.30;;;1.80;;
17091;SDS011;8661;45.700;4.880;2023-08-08T05:29:32;4.57;;;1.73;;
17091;SDS011;8661;45.700;4.880;2023-08-08T05:31:59;3.17;;;1.77;;
17091;SDS011;8661;45.700;4.880;2023-08-08T05:34:26;2.03;;;1.50;;
17091;SDS011;8661;45.700;4.880;2023-08-08T05:36:53;3.73;;;1.60;;
17091;SDS011;8661;45.700;4.880;2023-08-08T05:39:20;4.27;;;1.43;;
17091;SDS011;8661;45.700;4.880;2023-08-08T05:41:46;3.93;;;1.60;;
17091;SDS011;8661;45.700;4.880;2023-08-08T05:44:15;2.27;;;1.57;;
17091;SDS011;8661;45.700;4.880;2023-08-08T05:46:41;3.10;;;1.60;;
17091;SDS011;8661;45.700;4.880;2023-08-08T05:49:08;4.23;;;1.57;;
17091;SDS011;8661;45.700;4.880;2023-08-08T05:51:35;3.93;;;1.67;;
17091;SDS011;8661;45.700;4.880;2023-08-08T05:54:02;3.47;;;1.40;;
17091;SDS011;8661;45.700;4.880;2023-08-08T05:56:34;2.73;;;1.50;;
17091;SDS011;8661;45.700;4.880;2023-08-08T05:59:01;3.73;;;1.37;;
17091;SDS011;8661;45.700;4.880;2023-08-08T06:01:30;2.63;;;1.60;;
17091;SDS011;8661;45.700;4.880;2023-08-08T06:03:57;5.20;;;1.83;;
17091;SDS011;8661;45.700;4.880;2023-08-08T06:06:24;1.93;;;1.33;;
17091;SDS011;8661;45.700;4.880;2023-08-08T06:08:51;3.60;;;1.30;;
17091;SDS011;8661;45.700;4.880;2023-08-08T06:11:18;4.40;;;1.47;;
17091;SDS011;8661;45.700;4.880;2023-08-08T06:13:46;4.60;;;1.50;;
17091;SDS011;8661;45.700;4.880;2023-08-08T06:16:13;3.27;;;1.30;;
17091;SDS011;8661;45.700;4.880;2023-08-08T06:18:42;3.30;;;1.40;;
17091;SDS011;8661;45.700;4.880;2023-08-08T06:21:09;2.10;;;1.30;;
17091;SDS011;8661;45.700;4.880;2023-08-08T06:23:36;3.87;;;1.40;;
17091;SDS011;8661;45.700;4.880;2023-08-08T06:26:03;2.33;;;1.53;;
17091;SDS011;8661;45.700;4.880;2023-08-08T06:28:30;4.93;;;1.50;;
17091;SDS011;8661;45.700;4.880;2023-08-08T06:30:57;3.23;;;1.70;;
17091;SDS011;8661;45.700;4.880;2023-08-08T06:33:24;3.57;;;1.77;;
17091;SDS011;8661;45.700;4.880;2023-08-08T06:35:53;1.73;;;1.40;;
17091;SDS011;8661;45.700;4.880;2023-08-08T06:38:20;4.07;;;1.93;;
17091;SDS011;8661;45.700;4.880;2023-08-08T06:40:47;2.27;;;1.30;;
17091;SDS011;8661;45.700;4.880;2023-08-08T06:43:14;3.50;;;1.23;;
17091;SDS011;8661;45.700;4.880;2023-08-08T06:45:41;3.40;;;1.20;;
17091;SDS011;8661;45.700;4.880;2023-08-08T06:48:08;5.23;;;1.33;;
17091;SDS011;8661;45.700;4.880;2023-08-08T06:50:35;2.97;;;1.33;;
17091;SDS011;8661;45.700;4.880;2023-08-08T06:53:03;5.87;;;1.37;;
17091;SDS011;8661;45.700;4.880;2023-08-08T06:55:31;9.57;;;1.47;;
17091;SDS011;8661;45.700;4.880;2023-08-08T06:57:58;4.00;;;1.47;;
17091;SDS011;8661;45.700;4.880;2023-08-08T07:00:24;3.57;;;2.00;;
17091;SDS011;8661;45.700;4.880;2023-08-08T07:02:53;4.13;;;1.60;;
17091;SDS011;8661;45.700;4.880;2023-08-08T07:05:20;6.33;;;1.57;;
17091;SDS011;8661;45.700;4.880;2023-08-08T07:07:47;5.10;;;1.70;;
17091;SDS011;8661;45.700;4.880;2023-08-08T07:10:16;5.47;;;2.00;;
17091;SDS011;8661;45.700;4.880;2023-08-08T07:12:44;10.67;;;2.00;;
17091;SDS011;8661;45.700;4.880;2023-08-08T07:15:11;6.97;;;2.10;;
17091;SDS011;8661;45.700;4.880;2023-08-08T07:17:38;7.03;;;2.03;;
17091;SDS011;8661;45.700;4.880;2023-08-08T07:20:05;3.70;;;1.63;;
17091;SDS011;8661;45.700;4.880;2023-08-08T07:22:33;4.07;;;1.77;;
17091;SDS011;8661;45.700;4.880;2023-08-08T07:25:00;12.60;;;1.73;;
17091;SDS011;8661;45.700;4.880;2023-08-08T07:27:29;3.53;;;1.50;;
17091;SDS011;8661;45.700;4.880;2023-08-08T07:29:56;2.60;;;1.40;;
17091;SDS011;8661;45.700;4.880;2023-08-08T07:32:24;3.73;;;1.40;;
17091;SDS011;8661;45.700;4.880;2023-08-08T07:34:50;5.00;;;1.50;;
17091;SDS011;8661;45.700;4.880;2023-08-08T07:37:17;3.53;;;1.53;;
17091;SDS011;8661;45.700;4.880;2023-08-08T07:39:44;3.70;;;1.70;;
17091;SDS011;8661;45.700;4.880;2023-08-08T07:42:11;3.83;;;1.57;;
17091;SDS011;8661;45.700;4.880;2023-08-08T07:44:39;4.90;;;2.27;;
17091;SDS011;8661;45.700;4.880;2023-08-08T07:47:06;4.70;;;1.80;;
17091;SDS011;8661;45.700;4.880;2023-08-08T07:49:33;4.53;;;2.60;;
17091;SDS011;8661;45.700;4.880;2023-08-08T07:52:00;5.50;;;2.40;;
17091;SDS011;8661;45.700;4.880;2023-08-08T07:54:27;6.90;;;2.43;;
17091;SDS011;8661;45.700;4.880;2023-08-08T07:56:54;3.53;;;1.53;;
17091;SDS011;8661;45.700;4.880;2023-08-08T07:59:21;2.47;;;1.50;;
17091;SDS011;8661;45.700;4.880;2023-08-08T08:01:50;5.33;;;1.80;;
17091;SDS011;8661;45.700;4.880;2023-08-08T08:04:17;4.63;;;2.20;;
17091;SDS011;8661;45.700;4.880;2023-08-08T08:06:44;5.17;;;2.23;;
17091;SDS011;8661;45.700;4.880;2023-08-08T08:09:10;6.03;;;2.10;;
17091;SDS011;8661;45.700;4.880;2023-08-08T08:11:37;3.47;;;1.50;;
17091;SDS011;8661;45.700;4.880;2023-08-08T08:14:04;6.17;;;1.70;;
17091;SDS011;8661;45.700;4.880;2023-08-08T08:16:31;4.83;;;1.80;;
17091;SDS011;8661;45.700;4.880;2023-08-08T08:18:59;5.07;;;2.07;;
17091;SDS011;8661;45.700;4.880;2023-08-08T08:21:26;5.23;;;1.80;;
17091;SDS011;8661;45.700;4.880;2023-08-08T08:23:53;4.53;;;1.80;;
17091;SDS011;8661;45.700;4.880;2023-08-08T08:26:20;4.40;;;1.50;;
17091;SDS011;8661;45.700;4.880;2023-08-08T08:28:47;3.57;;;1.50;;
17091;SDS011;8661;45.700;4.880;2023-08-08T08:31:14;1.70;;;1.20;;
17091;SDS011;8661;45.700;4.880;2023-08-08T08:33:41;2.77;;;1.50;;
17091;SDS011;8661;45.700;4.880;2023-08-08T08:36:09;5.77;;;1.53;;
17091;SDS011;8661;45.700;4.880;2023-08-08T08:38:36;3.90;;;1.30;;
17091;SDS011;8661;45.700;4.880;2023-08-08T08:41:03;3.10;;;1.80;;
17091;SDS011;8661;45.700;4.880;2023-08-08T08:43:31;1.97;;;1.60;;
17091;SDS011;8661;45.700;4.880;2023-08-08T08:45:58;4.17;;;1.63;;
17091;SDS011;8661;45.700;4.880;2023-08-08T08:48:27;8.77;;;1.50;;
17091;SDS011;8661;45.700;4.880;2023-08-08T08:50:54;2.17;;;1.30;;
17091;SDS011;8661;45.700;4.880;2023-08-08T08:53:24;3.17;;;1.20;;
17091;SDS011;8661;45.700;4.880;2023-08-08T08:55:51;2.53;;;1.30;;
17091;SDS011;8661;45.700;4.880;2023-08-08T08:58:18;1.77;;;1.10;;
17091;SDS011;8661;45.700;4.880;2023-08-08T09:00:47;3.37;;;1.00;;
17091;SDS011;8661;45.700;4.880;2023-08-08T09:03:14;2.13;;;1.00;;
17091;SDS011;8661;45.700;4.880;2023-08-08T09:05:42;7.07;;;1.77;;
17091;SDS011;8661;45.700;4.880;2023-08-08T09:08:10;2.63;;;1.33;;
17091;SDS011;8661;45.700;4.880;2023-08-08T09:10:39;3.70;;;1.53;;
17091;SDS011;8661;45.700;4.880;2023-08-08T09:13:05;5.90;;;1.13;;
17091;SDS011;8661;45.700;4.880;2023-08-08T09:15:33;3.33;;;1.00;;
17091;SDS011;8661;45.700;4.880;2023-08-08T09:18:00;1.53;;;1.10;;
17091;SDS011;8661;45.700;4.880;2023-08-08T09:20:27;1.57;;;0.87;;
17091;SDS011;8661;45.700;4.880;2023-08-08T09:22:54;3.10;;;1.20;;
17091;SDS011;8661;45.700;4.880;2023-08-08T09:25:21;3.30;;;1.00;;
17091;SDS011;8661;45.700;4.880;2023-08-08T09:27:50;2.33;;;1.23;;
17091;SDS011;8661;45.700;4.880;2023-08-08T09:30:17;6.23;;;1.37;;
17091;SDS011;8661;45.700;4.880;2023-08-08T09:32:44;3.97;;;0.90;;
17091;SDS011;8661;45.700;4.880;2023-08-08T09:35:11;2.73;;;1.00;;
17091;SDS011;8661;45.700;4.880;2023-08-08T09:37:38;1.80;;;0.90;;
17091;SDS011;8661;45.700;4.880;2023-08-08T09:40:06;2.53;;;0.90;;
17091;SDS011;8661;45.700;4.880;2023-08-08T09:42:34;1.57;;;0.90;;
17091;SDS011;8661;45.700;4.880;2023-08-08T09:45:04;1.67;;;1.00;;
17091;SDS011;8661;45.700;4.880;2023-08-08T09:47:34;2.53;;;1.00;;
17091;SDS011;8661;45.700;4.880;2023-08-08T09:50:02;4.85;;;0.88;;
17091;SDS011;8661;45.700;4.880;2023-08-08T09:52:30;2.03;;;0.90;;
17091;SDS011;8661;45.700;4.880;2023-08-08T09:54:58;3.72;;;0.98;;
17091;SDS011;8661;45.700;4.880;2023-08-08T09:57:26;1.20;;;0.77;;
17091;SDS011;8661;45.700;4.880;2023-08-08T09:59:53;1.55;;;1.10;;
17091;SDS011;8661;45.700;4.880;2023-08-08T10:02:23;2.13;;;1.13;;
17091;SDS011;8661;45.700;4.880;2023-08-08T10:04:50;1.63;;;0.93;;
17091;SDS011;8661;45.700;4.880;2023-08-08T10:07:19;2.42;;;0.82;;
17091;SDS011;8661;45.700;4.880;2023-08-08T10:09:46;2.67;;;1.00;;
17091;SDS011;8661;45.700;4.880;2023-08-08T10:12:13;8.98;;;1.27;;
17091;SDS011;8661;45.700;4.880;2023-08-08T10:14:41;3.75;;;1.20;;
17091;SDS011;8661;45.700;4.880;2023-08-08T10:17:12;5.28;;;1.20;;
17091;SDS011;8661;45.700;4.880;2023-08-08T10:19:41;2.35;;;0.73;;
17091;SDS011;8661;45.700;4.880;2023-08-08T10:22:19;3.03;;;0.90;;
17091;SDS011;8661;45.700;4.880;2023-08-08T10:24:46;1.80;;;0.70;;
17091;SDS011;8661;45.700;4.880;2023-08-08T10:27:14;1.83;;;0.90;;
17091;SDS011;8661;45.700;4.880;2023-08-08T10:29:41;1.27;;;0.85;;
17091;SDS011;8661;45.700;4.880;2023-08-08T10:32:21;4.22;;;1.00;;
17091;SDS011;8661;45.700;4.880;2023-08-08T10:34:54;1.63;;;0.70;;
17091;SDS011;8661;45.700;4.880;2023-08-08T10:37:22;2.92;;;0.82;;
17091;SDS011;8661;45.700;4.880;2023-08-08T10:39:52;1.92;;;0.73;;
17091;SDS011;8661;45.700;4.880;2023-08-08T10:42:20;1.35;;;0.70;;
17091;SDS011;8661;45.700;4.880;2023-08-08T10:44:50;1.23;;;0.93;;
17091;SDS011;8661;45.700;4.880;2023-08-08T10:47:21;2.00;;;0.90;;
17091;SDS011;8661;45.700;4.880;2023-08-08T10:49:57;1.15;;;0.70;;
17091;SDS011;8661;45.700;4.880;2023-08-08T10:52:29;1.73;;;0.93;;
17091;SDS011;8661;45.700;4.880;2023-08-08T10:54:57;2.53;;;1.20;;
17091;SDS011;8661;45.700;4.880;2023-08-08T10:57:24;1.40;;;0.80;;
17091;SDS011;8661;45.700;4.880;2023-08-08T10:59:51;2.53;;;0.70;;
17091;SDS011;8661;45.700;4.880;2023-08-08T11:02:18;1.33;;;0.88;;
17091;SDS011;8661;45.700;4.880;2023-08-08T11:04:47;2.72;;;0.77;;
17091;SDS011;8661;45.700;4.880;2023-08-08T11:07:16;2.08;;;1.00;;
17091;SDS011;8661;45.700;4.880;2023-08-08T11:09:44;5.47;;;1.40;;
17091;SDS011;8661;45.700;4.880;2023-08-08T11:12:14;2.28;;;1.17;;
17091;SDS011;8661;45.700;4.880;2023-08-08T11:14:41;6.45;;;1.15;;
17091;SDS011;8661;45.700;4.880;2023-08-08T11:17:08;1.98;;;1.05;;
17091;SDS011;8661;45.700;4.880;2023-08-08T11:19:38;2.35;;;0.70;;
17091;SDS011;8661;45.700;4.880;2023-08-08T11:22:08;2.63;;;1.27;;
17091;SDS011;8661;45.700;4.880;2023-08-08T11:24:38;5.90;;;2.58;;
17091;SDS011;8661;45.700;4.880;2023-08-08T11:27:04;0.70;;;0.70;;
17091;SDS011;8661;45.700;4.880;2023-08-08T11:29:31;1.75;;;0.90;;
17091;SDS011;8661;45.700;4.880;2023-08-08T11:31:59;1.40;;;0.70;;
17091;SDS011;8661;45.700;4.880;2023-08-08T11:34:29;3.13;;;1.00;;
17091;SDS011;8661;45.700;4.880;2023-08-08T11:36:57;1.42;;;1.00;;
17091;SDS011;8661;45.700;4.880;2023-08-08T11:39:24;0.93;;;0.82;;
17091;SDS011;8661;45.700;4.880;2023-08-08T11:41:54;1.45;;;0.90;;
17091;SDS011;8661;45.700;4.880;2023-08-08T11:44:22;1.25;;;0.90;;
17091;SDS011;8661;45.700;4.880;2023-08-08T11:46:48;2.63;;;0.93;;
17091;SDS011;8661;45.700;4.880;2023-08-08T11:49:16;2.05;;;1.05;;
17091;SDS011;8661;45.700;4.880;2023-08-08T11:51:43;1.13;;;0.90;;
17091;SDS011;8661;45.700;4.880;2023-08-08T11:54:11;0.70;;;0.70;;
17091;SDS011;8661;45.700;4.880;2023-08-08T11:56:38;2.92;;;0.85;;
17091;SDS011;8661;45.700;4.880;2023-08-08T11:59:07;3.08;;;0.82;;
17091;SDS011;8661;45.700;4.880;2023-08-08T12:01:35;6.35;;;0.90;;
17091;SDS011;8661;45.700;4.880;2023-08-08T12:04:06;1.10;;;0.80;;
17091;SDS011;8661;45.700;4.880;2023-08-08T12:06:36;1.70;;;1.05;;
17091;SDS011;8661;45.700;4.880;2023-08-08T12:09:05;1.15;;;0.88;;
17091;SDS011;8661;45.700;4.880;2023-08-08T12:11:33;1.15;;;0.90;;
17091;SDS011;8661;45.700;4.880;2023-08-08T12:14:01;6.07;;;1.05;;
17091;SDS011;8661;45.700;4.880;2023-08-08T12:16:30;4.80;;;1.10;;
17091;SDS011;8661;45.700;4.880;2023-08-08T12:18:57;2.17;;;0.95;;
17091;SDS011;8661;45.700;4.880;2023-08-08T12:21:27;2.30;;;0.98;;
17091;SDS011;8661;45.700;4.880;2023-08-08T12:23:54;1.55;;;0.95;;
17091;SDS011;8661;45.700;4.880;2023-08-08T12:26:21;0.93;;;0.70;;
17091;SDS011;8661;45.700;4.880;2023-08-08T12:28:48;1.52;;;0.90;;
17091;SDS011;8661;45.700;4.880;2023-08-08T12:31:18;0.80;;;0.70;;
17091;SDS011;8661;45.700;4.880;2023-08-08T12:33:46;2.55;;;0.80;;
17091;SDS011;8661;45.700;4.880;2023-08-08T12:36:13;2.00;;;0.93;;
17091;SDS011;8661;45.700;4.880;2023-08-08T12:38:40;1.17;;;0.90;;
17091;SDS011;8661;45.700;4.880;2023-08-08T12:41:07;1.42;;;0.98;;
17091;SDS011;8661;45.700;4.880;2023-08-08T12:43:36;2.85;;;1.10;;
17091;SDS011;8661;45.700;4.880;2023-08-08T12:46:02;1.50;;;0.80;;
17091;SDS011;8661;45.700;4.880;2023-08-08T12:48:29;1.58;;;0.70;;
17091;SDS011;8661;45.700;4.880;2023-08-08T12:50:57;0.77;;;0.77;;
17091;SDS011;8661;45.700;4.880;2023-08-08T12:53:24;1.65;;;1.02;;
17091;SDS011;8661;45.700;4.880;2023-08-08T12:55:51;2.03;;;0.70;;
17091;SDS011;8661;45.700;4.880;2023-08-08T12:58:18;2.33;;;0.80;;
17091;SDS011;8661;45.700;4.880;2023-08-08T13:00:45;1.50;;;0.82;;
17091;SDS011;8661;45.700;4.880;2023-08-08T13:03:12;2.22;;;0.90;;
17091;SDS011;8661;45.700;4.880;2023-08-08T13:05:39;1.75;;;0.77;;
17091;SDS011;8661;45.700;4.880;2023-08-08T13:08:07;0.80;;;0.77;;
17091;SDS011;8661;45.700;4.880;2023-08-08T13:10:34;1.70;;;1.13;;
17091;SDS011;8661;45.700;4.880;2023-08-08T13:13:01;1.17;;;0.93;;
17091;SDS011;8661;45.700;4.880;2023-08-08T13:15:28;2.75;;;0.90;;
17091;SDS011;8661;45.700;4.880;2023-08-08T13:17:55;1.73;;;0.90;;
17091;SDS011;8661;45.700;4.880;2023-08-08T13:20:25;1.33;;;0.70;;
17091;SDS011;8661;45.700;4.880;2023-08-08T13:22:52;1.25;;;0.90;;
17091;SDS011;8661;45.700;4.880;2023-08-08T13:25:20;1.58;;;0.90;;
17091;SDS011;8661;45.700;4.880;2023-08-08T13:27:47;1.83;;;1.05;;
17091;SDS011;8661;45.700;4.880;2023-08-08T13:30:14;2.35;;;0.80;;
17091;SDS011;8661;45.700;4.880;2023-08-08T13:32:41;1.27;;;0.90;;
17091;SDS011;8661;45.700;4.880;2023-08-08T13:35:08;2.15;;;0.80;;
17091;SDS011;8661;45.700;4.880;2023-08-08T13:37:35;1.08;;;0.90;;
17091;SDS011;8661;45.700;4.880;2023-08-08T13:40:02;3.63;;;1.13;;
17091;SDS011;8661;45.700;4.880;2023-08-08T13:42:32;1.40;;;1.00;;
17091;SDS011;8661;45.700;4.880;2023-08-08T13:44:58;2.08;;;0.93;;
17091;SDS011;8661;45.700;4.880;2023-08-08T13:47:26;1.75;;;0.90;;
17091;SDS011;8661;45.700;4.880;2023-08-08T13:49:52;2.30;;;1.02;;
17091;SDS011;8661;45.700;4.880;2023-08-08T13:52:19;1.60;;;1.00;;
17091;SDS011;8661;45.700;4.880;2023-08-08T13:54:46;3.58;;;1.50;;
17091;SDS011;8661;45.700;4.880;2023-08-08T13:57:13;3.67;;;1.20;;
17091;SDS011;8661;45.700;4.880;2023-08-08T13:59:41;2.17;;;1.10;;
17091;SDS011;8661;45.700;4.880;2023-08-08T14:02:11;1.25;;;1.00;;
17091;SDS011;8661;45.700;4.880;2023-08-08T14:04:37;1.75;;;1.20;;
17091;SDS011;8661;45.700;4.880;2023-08-08T14:07:04;1.70;;;1.05;;
17091;SDS011;8661;45.700;4.880;2023-08-08T14:09:32;0.90;;;0.75;;
17091;SDS011;8661;45.700;4.880;2023-08-08T14:11:59;1.15;;;0.90;;
17091;SDS011;8661;45.700;4.880;2023-08-08T14:14:25;2.00;;;1.15;;
17091;SDS011;8661;45.700;4.880;2023-08-08T14:16:54;2.92;;;1.13;;
17091;SDS011;8661;45.700;4.880;2023-08-08T14:19:20;1.40;;;0.85;;
17091;SDS011;8661;45.700;4.880;2023-08-08T14:21:47;2.25;;;1.05;;
17091;SDS011;8661;45.700;4.880;2023-08-08T14:24:14;3.75;;;1.20;;
17091;SDS011;8661;45.700;4.880;2023-08-08T14:26:41;3.25;;;1.02;;
17091;SDS011;8661;45.700;4.880;2023-08-08T14:29:08;1.50;;;1.10;;
17091;SDS011;8661;45.700;4.880;2023-08-08T14:31:35;1.52;;;1.02;;
17091;SDS011;8661;45.700;4.880;2023-08-08T14:34:03;3.95;;;1.10;;
17091;SDS011;8661;45.700;4.880;2023-08-08T14:36:30;2.35;;;1.20;;
17091;SDS011;8661;45.700;4.880;2023-08-08T14:38:57;1.60;;;0.95;;
17091;SDS011;8661;45.700;4.880;2023-08-08T14:41:24;1.40;;;0.90;;
17091;SDS011;8661;45.700;4.880;2023-08-08T14:43:50;1.73;;;1.08;;
17091;SDS011;8661;45.700;4.880;2023-08-08T14:46:17;2.47;;;0.98;;
17091;SDS011;8661;45.700;4.880;2023-08-08T14:48:44;4.13;;;1.00;;
17091;SDS011;8661;45.700;4.880;2023-08-08T14:51:13;1.15;;;1.00;;
17091;SDS011;8661;45.700;4.880;2023-08-08T14:53:41;2.60;;;1.10;;
17091;SDS011;8661;45.700;4.880;2023-08-08T14:56:08;2.30;;;1.35;;
17091;SDS011;8661;45.700;4.880;2023-08-08T14:58:35;3.65;;;1.00;;
17091;SDS011;8661;45.700;4.880;2023-08-08T15:01:02;1.88;;;1.17;;